St. Louis, MO

6:21 PM CST on February 14, 2016 (GMT -0600)
Carondelet Park | | Change Station
CLOSE
Current Station
Personal Weather Station
Location: Saint Louis, MO
Elevation: 453 ft
Nearby Weather Stations

Elev 453 ft 38.57 °N, 90.27 °W | Updated 9 seconds ago

Overcast
Overcast
27.7 °F
Feels Like 28 °F
N
0.0
Wind Variable Wind from SE
Gusts 5.0 mph

Today
High -- | Low -- °F
--% Chance of Precip.
Yesterday
High -- | Low -- °F
Precip. -- in
Pressure 30.02 in
Visibility 10.0 miles
Clouds Overcast 1300 ft
Windchill 28 °F
Dew Point 24 °F
Humidity 86%
Rainfall 0.00 in
Snow Depth Not available.
6:53 AM 5:37 PM
Waxing Crescent, 47% visible
METAR KSTL 142351Z 15006KT 10SM OVC013 M02/M05 A2998 RMK AO2 SLP164 4/001 60001 T10221050 11022 21044 55003
Pressure 30.02 in
Visibility 10.0 miles
Clouds Overcast 1300 ft
Windchill 28 °F
Dew Point 24 °F
Humidity 86%
Rainfall 0.00 in
Snow Depth Not available.
6:53 AM 5:37 PM
Waxing Crescent, 47% visible
METAR KSTL 142351Z 15006KT 10SM OVC013 M02/M05 A2998 RMK AO2 SLP164 4/001 60001 T10221050 11022 21044 55003

10-Day Weather Forecast

Almanac

Astronomy

Feb. 14, 2016 Rise Set
Actual Time
Civil Twilight
Nautical Twilight
Astronomical Twilight
Moon
Length of Visible Light
Length of Day
Tomorrow will be .
, % of the Moon is Illuminated

Today's Extremes

State Highs State Lows

Community

WunderPhotos

Upload Photos

1,892,944 photos uploaded!

WunderBlog® & News

Nearby

Air Quality

  Air Quality AQ Index Pollutant
Not available.

Snow Depth

Station Depth Elevation

Earthquake Activity

City Distance Mag. Time & Date
Minimum magnitude displayed is 2.5.

Coastal Water Temperatures

Place Temperature

Stations

Nearby Weather Stations

Station Location Temp. Windchill Dew Point Humidity Wind Precip. Elev Updated Type
                   

Watches & Warnings

There are currently no watches in effect.